createdAt,value
2023-02-11T00:00:21.547Z,38.49
2023-02-11T00:02:48.285Z,37.65
2023-02-11T00:05:15.218Z,39.04
2023-02-11T00:07:41.885Z,39.51
2023-02-11T00:10:09.684Z,38.78
2023-02-11T00:12:36.815Z,39.04
2023-02-11T00:15:04.188Z,38.04
2023-02-11T00:17:31.405Z,39.73
2023-02-11T00:19:58.071Z,39.47
2023-02-11T00:22:24.717Z,39.85
2023-02-11T00:24:51.337Z,39.03
2023-02-11T00:27:18.047Z,39.93
2023-02-11T00:29:44.659Z,38.12
2023-02-11T00:32:11.280Z,39.14
2023-02-11T00:34:37.920Z,39.11
2023-02-11T00:37:04.796Z,39.17
2023-02-11T00:39:31.475Z,38.44
2023-02-11T00:41:58.334Z,39.52
2023-02-11T00:44:25.155Z,39.48
2023-02-11T00:46:51.781Z,39.31
2023-02-11T00:49:18.390Z,38.93
2023-02-11T00:51:47.552Z,38.97
2023-02-11T00:54:14.261Z,38.41
2023-02-11T00:56:40.913Z,38.99
2023-02-11T00:59:07.584Z,39.72
2023-02-11T01:01:34.309Z,39.03
2023-02-11T01:04:02.334Z,39.64
2023-02-11T01:06:29.006Z,39.37
2023-02-11T01:08:55.711Z,38.45
2023-02-11T01:11:23.239Z,39.92
2023-02-11T01:13:50.047Z,39.78
2023-02-11T01:16:17.313Z,38.89
2023-02-11T01:18:46.965Z,40.64
2023-02-11T01:21:14.453Z,39.52
2023-02-11T01:23:41.136Z,40.24
2023-02-11T01:26:07.837Z,38.70
2023-02-11T01:28:34.602Z,40.32
2023-02-11T01:31:01.844Z,39.56
2023-02-11T01:33:28.653Z,38.20
2023-02-11T01:35:55.257Z,38.35
2023-02-11T01:38:24.203Z,39.65
2023-02-11T01:40:55.081Z,38.66
2023-02-11T01:43:22.017Z,37.63
2023-02-11T01:45:48.920Z,39.45
2023-02-11T01:48:46.888Z,40.03
2023-02-11T01:51:17.075Z,38.74
2023-02-11T01:53:44.317Z,37.22
2023-02-11T01:56:10.934Z,37.78
2023-02-11T01:58:39.117Z,35.81
2023-02-11T02:01:05.762Z,37.00
2023-02-11T02:03:32.441Z,36.43
2023-02-11T02:06:04.001Z,36.25
2023-02-11T02:08:41.214Z,35.98
2023-02-11T02:11:07.974Z,35.41
2023-02-11T02:13:34.851Z,36.14
2023-02-11T02:16:03.448Z,36.03
2023-02-11T02:18:51.593Z,37.01
2023-02-11T02:21:36.033Z,34.99
2023-02-11T02:24:20.911Z,37.75
2023-02-11T02:27:16.417Z,36.26
2023-02-11T02:29:58.155Z,35.72
2023-02-11T02:32:43.346Z,35.44
2023-02-11T02:35:36.113Z,35.90
2023-02-11T02:38:11.183Z,35.78
2023-02-11T02:40:45.330Z,36.26
2023-02-11T02:43:12.035Z,38.00
2023-02-11T02:45:38.700Z,38.05
2023-02-11T02:48:05.374Z,37.33
2023-02-11T02:50:36.488Z,36.53
2023-02-11T02:53:18.134Z,37.47
2023-02-11T02:56:04.278Z,37.90
2023-02-11T02:58:54.416Z,39.21
2023-02-11T03:01:29.967Z,37.82
2023-02-11T03:03:59.493Z,38.09
2023-02-11T03:06:34.457Z,40.08
2023-02-11T03:09:09.015Z,39.53
2023-02-11T03:11:36.991Z,39.77
2023-02-11T03:14:03.988Z,39.27
2023-02-11T03:16:30.728Z,40.36
2023-02-11T03:19:01.165Z,39.15
2023-02-11T03:21:27.769Z,39.35
2023-02-11T03:23:54.937Z,40.09
2023-02-11T03:26:23.797Z,39.16
2023-02-11T03:29:10.363Z,38.98
2023-02-11T03:31:55.428Z,39.43
2023-02-11T03:34:44.041Z,40.12
2023-02-11T03:37:18.043Z,40.60
2023-02-11T03:39:47.806Z,39.95
2023-02-11T03:42:14.562Z,41.16
2023-02-11T03:44:44.309Z,39.14
2023-02-11T03:47:10.965Z,40.06
2023-02-11T03:49:38.179Z,38.91
2023-02-11T03:52:04.921Z,39.35
2023-02-11T03:54:31.719Z,40.00
2023-02-11T03:57:00.124Z,39.39
2023-02-11T03:59:26.774Z,40.83
2023-02-11T04:01:53.449Z,40.18
2023-02-11T04:04:20.356Z,39.53
2023-02-11T04:06:47.059Z,38.86
2023-02-11T04:09:13.715Z,40.09
2023-02-11T04:11:40.357Z,37.98
2023-02-11T04:14:07.010Z,37.94
2023-02-11T04:16:33.666Z,38.42
2023-02-11T04:19:00.408Z,38.24
2023-02-11T04:21:27.070Z,37.38
2023-02-11T04:23:53.782Z,37.27
2023-02-11T04:26:20.397Z,37.56
2023-02-11T04:28:47.066Z,37.07
2023-02-11T04:31:13.761Z,37.81
2023-02-11T04:33:40.478Z,38.17
2023-02-11T04:36:07.494Z,36.51
2023-02-11T04:38:34.108Z,37.56
2023-02-11T04:41:00.733Z,37.67
2023-02-11T04:43:27.430Z,37.62
2023-02-11T04:45:57.506Z,36.48
2023-02-11T04:48:24.508Z,35.27
2023-02-11T04:50:51.204Z,36.58
2023-02-11T04:53:17.813Z,36.43
2023-02-11T04:55:44.425Z,35.84
2023-02-11T04:58:11.086Z,35.76
2023-02-11T05:00:37.725Z,36.92
2023-02-11T05:03:04.353Z,36.61
2023-02-11T05:05:31.019Z,36.61
2023-02-11T05:07:57.642Z,37.40
2023-02-11T05:10:24.241Z,36.61
2023-02-11T05:12:50.868Z,37.00
2023-02-11T05:15:17.547Z,34.80
2023-02-11T05:17:44.158Z,34.63
2023-02-11T05:20:10.885Z,36.10
2023-02-11T05:22:37.468Z,36.09
2023-02-11T05:25:04.153Z,35.84
2023-02-11T05:27:30.745Z,36.81
2023-02-11T05:29:57.374Z,35.80
2023-02-11T05:32:23.977Z,34.72
2023-02-11T05:34:50.680Z,33.86
2023-02-11T05:37:17.366Z,35.34
2023-02-11T05:39:43.990Z,34.57
2023-02-11T05:42:10.657Z,33.67
2023-02-11T05:44:37.337Z,33.92
2023-02-11T05:47:03.993Z,33.50
2023-02-11T05:49:30.613Z,33.39
2023-02-11T05:51:57.500Z,32.96
2023-02-11T05:54:24.143Z,32.67
2023-02-11T05:56:50.781Z,31.91
2023-02-11T05:59:17.399Z,32.77
2023-02-11T06:01:44.003Z,32.78
2023-02-11T06:04:10.664Z,32.03
2023-02-11T06:06:37.351Z,32.92
2023-02-11T06:09:04.256Z,33.28
2023-02-11T06:11:30.890Z,31.81
2023-02-11T06:13:57.571Z,31.99
2023-02-11T06:16:24.285Z,32.42
2023-02-11T06:18:50.918Z,31.96
2023-02-11T06:21:17.601Z,32.07
2023-02-11T06:23:44.243Z,31.48
2023-02-11T06:26:16.458Z,32.35
2023-02-11T06:28:43.151Z,31.79
2023-02-11T06:31:10.017Z,30.47
2023-02-11T06:33:36.703Z,31.82
2023-02-11T06:36:03.697Z,32.25
2023-02-11T06:38:30.296Z,32.38
2023-02-11T06:40:56.947Z,32.18
2023-02-11T06:43:23.592Z,31.36
2023-02-11T06:45:56.051Z,30.86
2023-02-11T06:48:23.049Z,31.13
2023-02-11T06:50:49.672Z,32.50
2023-02-11T06:53:16.325Z,31.06
2023-02-11T06:55:43.171Z,30.98
2023-02-11T06:58:09.819Z,30.68
2023-02-11T07:00:36.698Z,30.79
2023-02-11T07:03:03.445Z,32.98
2023-02-11T07:05:30.092Z,32.54
2023-02-11T07:07:57.038Z,31.87
2023-02-11T07:10:23.763Z,32.32
2023-02-11T07:12:50.379Z,30.61
2023-02-11T07:15:17.020Z,31.26
2023-02-11T07:17:43.610Z,31.27
2023-02-11T07:20:10.653Z,32.01
2023-02-11T07:22:37.267Z,30.88
2023-02-11T07:25:04.030Z,31.73
2023-02-11T07:27:30.676Z,31.60
2023-02-11T07:29:57.293Z,31.33
2023-02-11T07:32:23.956Z,32.57
2023-02-11T07:34:50.747Z,32.00
2023-02-11T07:37:17.446Z,32.51
2023-02-11T07:39:44.102Z,33.84
2023-02-11T07:42:10.768Z,31.91
2023-02-11T07:44:37.388Z,31.73
2023-02-11T07:47:04.101Z,31.32
2023-02-11T07:49:30.782Z,31.16
2023-02-11T07:51:57.531Z,33.33
2023-02-11T07:54:24.209Z,33.09
2023-02-11T07:56:50.849Z,34.69
2023-02-11T07:59:17.496Z,34.22
2023-02-11T08:01:44.179Z,33.32
2023-02-11T08:04:10.956Z,34.17
2023-02-11T08:06:41.169Z,33.91
2023-02-11T08:09:08.037Z,34.18
2023-02-11T08:11:34.647Z,33.65
2023-02-11T08:14:01.400Z,34.41
2023-02-11T08:16:30.239Z,33.12
2023-02-11T08:18:57.667Z,32.98
2023-02-11T08:21:24.576Z,34.31
2023-02-11T08:23:51.255Z,33.50
2023-02-11T08:26:19.499Z,33.24
2023-02-11T08:28:46.711Z,35.08
2023-02-11T08:31:21.058Z,38.53
2023-02-11T08:33:47.730Z,36.41
2023-02-11T08:36:16.554Z,37.72
2023-02-11T08:38:43.161Z,38.54
2023-02-11T08:41:09.848Z,36.33
2023-02-11T08:43:36.594Z,39.81
2023-02-11T08:46:03.392Z,40.74
2023-02-11T08:48:30.118Z,44.69
2023-02-11T08:50:56.979Z,43.44
2023-02-11T08:53:23.604Z,48.60
2023-02-11T08:55:51.239Z,41.23
2023-02-11T08:58:19.174Z,40.87
2023-02-11T09:00:46.465Z,41.32
2023-02-11T09:03:13.892Z,39.94
2023-02-11T09:05:47.853Z,41.48
2023-02-11T09:08:14.492Z,48.28
2023-02-11T09:10:41.149Z,50.40
2023-02-11T09:13:07.856Z,49.85
2023-02-11T09:15:34.541Z,49.67
2023-02-11T09:18:01.347Z,47.57
2023-02-11T09:20:28.043Z,48.57
2023-02-11T09:22:54.899Z,47.30
2023-02-11T09:25:21.552Z,45.48
2023-02-11T09:27:48.241Z,48.08
2023-02-11T09:30:15.342Z,48.00
2023-02-11T09:32:41.959Z,47.40
2023-02-11T09:35:08.702Z,48.81
2023-02-11T09:37:37.354Z,49.13
2023-02-11T09:40:04.487Z,47.62
2023-02-11T09:42:43.141Z,49.01
2023-02-11T09:45:24.206Z,48.74
2023-02-11T09:47:59.460Z,48.55
2023-02-11T09:50:28.116Z,47.41
2023-02-11T09:53:00.556Z,47.54
2023-02-11T09:55:35.624Z,48.56
2023-02-11T09:58:03.367Z,47.96
2023-02-11T10:01:08.354Z,47.45
2023-02-11T10:03:46.830Z,48.64
2023-02-11T10:06:31.795Z,48.70
2023-02-11T10:09:04.209Z,50.02
2023-02-11T10:11:36.805Z,50.67
2023-02-11T10:14:15.462Z,49.08
2023-02-11T10:17:21.636Z,48.91
2023-02-11T10:20:06.484Z,49.55
2023-02-11T10:22:36.692Z,46.16
2023-02-11T10:25:13.008Z,47.61
2023-02-11T10:27:39.909Z,49.65
2023-02-11T10:30:07.880Z,48.22
2023-02-11T10:32:53.071Z,50.44
2023-02-11T10:35:21.632Z,48.75
2023-02-11T10:37:48.637Z,49.68
2023-02-11T10:40:19.569Z,50.30
2023-02-11T10:42:55.665Z,50.24
2023-02-11T10:45:30.431Z,48.17
2023-02-11T10:47:57.076Z,49.62
2023-02-11T10:50:31.281Z,47.47
2023-02-11T10:53:19.998Z,47.65
2023-02-11T10:55:56.394Z,46.16
2023-02-11T10:59:05.593Z,47.74
2023-02-11T11:01:52.857Z,47.89
2023-02-11T11:04:27.276Z,47.41
2023-02-11T11:06:53.983Z,46.26
2023-02-11T11:09:28.030Z,46.61
2023-02-11T11:11:54.689Z,45.17
2023-02-11T11:14:21.426Z,46.16
2023-02-11T11:16:54.623Z,48.20
2023-02-11T11:19:24.866Z,47.29
2023-02-11T11:21:55.759Z,46.43
2023-02-11T11:24:29.428Z,46.84
2023-02-11T11:26:57.662Z,44.01
2023-02-11T11:29:50.424Z,46.86
2023-02-11T11:32:28.037Z,44.58
2023-02-11T11:34:55.797Z,46.07
2023-02-11T11:37:22.272Z,43.64
2023-02-11T11:39:57.935Z,46.07
2023-02-11T11:42:29.959Z,44.43
2023-02-11T11:45:18.748Z,46.41
2023-02-11T11:47:48.441Z,43.57
2023-02-11T11:50:21.900Z,46.92
2023-02-11T11:53:05.137Z,46.49
2023-02-11T11:56:02.623Z,46.14
2023-02-11T11:58:29.430Z,47.22
2023-02-11T12:01:15.217Z,47.27
2023-02-11T12:04:09.659Z,46.60
2023-02-11T12:07:03.444Z,46.43
2023-02-11T12:09:38.665Z,66.51
2023-02-11T12:12:25.881Z,45.55
2023-02-11T12:15:14.178Z,45.18
2023-02-11T12:17:52.266Z,45.40
2023-02-11T12:20:56.515Z,43.18
2023-02-11T12:23:47.610Z,44.99
2023-02-11T12:26:20.489Z,45.96
2023-02-11T12:28:53.091Z,44.76
2023-02-11T12:31:34.882Z,45.64
2023-02-11T12:34:33.957Z,45.68
2023-02-11T12:37:10.896Z,44.05
2023-02-11T12:39:54.353Z,44.56
2023-02-11T12:42:38.630Z,46.31
2023-02-11T12:45:12.001Z,45.11
2023-02-11T12:48:00.896Z,47.39
2023-02-11T12:50:36.009Z,46.11
2023-02-11T12:53:28.899Z,44.92
2023-02-11T12:56:00.942Z,44.36
2023-02-11T12:58:42.799Z,45.50
2023-02-11T13:01:16.086Z,44.41
2023-02-11T13:03:56.311Z,43.35
2023-02-11T13:06:28.330Z,41.71
2023-02-11T13:08:59.529Z,41.68
2023-02-11T13:11:47.297Z,42.56
2023-02-11T13:14:32.305Z,43.12
2023-02-11T13:16:59.055Z,46.47
2023-02-11T13:19:37.633Z,62.61
2023-02-11T13:22:04.127Z,46.20
2023-02-11T13:24:42.454Z,42.80
2023-02-11T13:27:48.236Z,56.62
2023-02-11T13:30:33.514Z,47.00
2023-02-11T13:33:00.109Z,43.93
2023-02-11T13:35:33.728Z,44.02
2023-02-11T13:38:03.728Z,42.94
2023-02-11T13:40:38.199Z,43.09
2023-02-11T13:43:06.044Z,43.67
2023-02-11T13:45:42.877Z,42.17
2023-02-11T13:48:22.580Z,42.64
2023-02-11T13:50:50.815Z,40.54
2023-02-11T13:53:17.622Z,40.62
2023-02-11T13:55:48.946Z,40.82
2023-02-11T13:58:16.028Z,39.29
2023-02-11T14:00:47.658Z,39.75
2023-02-11T14:03:14.169Z,40.23
2023-02-11T14:05:40.771Z,39.53
2023-02-11T14:08:10.265Z,38.52
2023-02-11T14:10:42.826Z,39.67
2023-02-11T14:13:54.284Z,39.84
2023-02-11T14:16:36.388Z,39.47
2023-02-11T14:19:04.418Z,38.44
2023-02-11T14:21:38.349Z,42.62
2023-02-11T14:24:04.973Z,41.40
2023-02-11T14:26:52.033Z,40.74
2023-02-11T14:29:43.897Z,39.03
2023-02-11T14:32:32.699Z,38.95
2023-02-11T14:35:09.904Z,38.26
2023-02-11T14:37:44.379Z,37.39
2023-02-11T14:40:16.673Z,39.29
2023-02-11T14:42:43.313Z,35.98
2023-02-11T14:45:11.366Z,36.01
2023-02-11T14:48:05.129Z,36.14
2023-02-11T14:50:54.262Z,36.39
2023-02-11T14:53:24.543Z,36.81
2023-02-11T14:55:52.188Z,35.88
2023-02-11T14:58:28.953Z,37.82
2023-02-11T15:01:06.422Z,38.73
2023-02-11T15:03:37.777Z,41.11
2023-02-11T15:06:18.026Z,40.26
2023-02-11T15:09:02.885Z,41.12
2023-02-11T15:11:31.664Z,40.09
2023-02-11T15:13:59.809Z,40.29
2023-02-11T15:16:27.217Z,41.19
2023-02-11T15:18:59.453Z,41.82
2023-02-11T15:21:27.747Z,42.07
2023-02-11T15:24:00.590Z,41.60
2023-02-11T15:26:27.345Z,43.77
2023-02-11T15:28:53.971Z,41.56
2023-02-11T15:31:22.526Z,41.12
2023-02-11T15:33:49.696Z,41.52
2023-02-11T15:36:16.752Z,41.23
2023-02-11T15:38:43.468Z,41.99
2023-02-11T15:41:33.984Z,41.63
2023-02-11T15:44:00.945Z,41.23
2023-02-11T15:46:37.729Z,40.93
2023-02-11T15:49:04.431Z,40.38
2023-02-11T15:51:32.503Z,40.76
2023-02-11T15:54:00.645Z,42.48
2023-02-11T15:56:33.702Z,41.29
2023-02-11T15:59:07.413Z,40.25
2023-02-11T16:01:35.175Z,38.62
2023-02-11T16:04:02.228Z,37.83
2023-02-11T16:06:41.552Z,37.89
2023-02-11T16:09:08.010Z,37.49
2023-02-11T16:11:36.424Z,36.96
2023-02-11T16:14:19.426Z,37.04
2023-02-11T16:16:46.698Z,36.37
2023-02-11T16:19:13.349Z,36.89
2023-02-11T16:21:41.844Z,37.10
2023-02-11T16:24:14.878Z,37.06
2023-02-11T16:26:41.522Z,36.42
2023-02-11T16:29:11.768Z,36.26
2023-02-11T16:31:40.273Z,34.73
2023-02-11T16:34:18.114Z,31.93
2023-02-11T16:36:45.229Z,31.12
2023-02-11T16:39:11.926Z,31.20
2023-02-11T16:41:38.767Z,31.31
2023-02-11T16:44:05.423Z,30.36
2023-02-11T16:46:32.135Z,29.26
2023-02-11T16:48:59.065Z,29.81
2023-02-11T16:51:25.685Z,28.89
2023-02-11T16:53:52.342Z,31.32
2023-02-11T16:56:19.131Z,32.13
2023-02-11T16:58:45.778Z,30.57
2023-02-11T17:01:14.073Z,30.23
2023-02-11T17:03:41.064Z,30.39
2023-02-11T17:06:10.637Z,29.63
2023-02-11T17:08:39.823Z,29.87
2023-02-11T17:11:06.758Z,30.08
2023-02-11T17:13:33.653Z,31.60
2023-02-11T17:16:00.327Z,30.51
2023-02-11T17:18:26.995Z,30.67
2023-02-11T17:20:53.651Z,29.67
2023-02-11T17:23:20.305Z,29.82
2023-02-11T17:25:46.913Z,31.27
2023-02-11T17:28:13.633Z,30.53
2023-02-11T17:30:40.776Z,31.42
2023-02-11T17:33:07.386Z,32.22
2023-02-11T17:35:33.976Z,33.75
2023-02-11T17:38:00.621Z,32.81
2023-02-11T17:40:27.269Z,34.11
2023-02-11T17:42:53.949Z,32.80
2023-02-11T17:45:22.386Z,33.01
2023-02-11T17:47:49.210Z,32.56
2023-02-11T17:50:15.909Z,32.45
2023-02-11T17:52:42.574Z,31.62
2023-02-11T17:55:09.215Z,33.81
2023-02-11T17:57:35.832Z,38.61
2023-02-11T18:00:02.866Z,37.40
2023-02-11T18:02:29.509Z,35.88
2023-02-11T18:04:56.208Z,37.68
2023-02-11T18:07:23.182Z,38.72
2023-02-11T18:09:49.877Z,36.82
2023-02-11T18:12:16.530Z,39.38
2023-02-11T18:14:43.175Z,40.64
2023-02-11T18:17:09.874Z,38.12
2023-02-11T18:19:36.527Z,35.19
2023-02-11T18:22:03.251Z,36.18
2023-02-11T18:24:29.966Z,36.31
2023-02-11T18:26:56.644Z,36.46
2023-02-11T18:29:23.298Z,38.70
2023-02-11T18:31:50.069Z,37.51
2023-02-11T18:34:16.830Z,36.30
2023-02-11T18:36:43.488Z,40.79
2023-02-11T18:39:10.117Z,40.24
2023-02-11T18:41:36.746Z,41.57
2023-02-11T18:44:03.733Z,38.85
2023-02-11T18:46:30.581Z,41.48
2023-02-11T18:48:57.294Z,41.28
2023-02-11T18:51:23.997Z,42.84
2023-02-11T18:53:50.660Z,44.82
2023-02-11T18:56:19.629Z,46.00
2023-02-11T18:58:46.744Z,46.45
2023-02-11T19:01:21.080Z,46.73
2023-02-11T19:03:47.890Z,45.01
2023-02-11T19:06:18.907Z,45.65
2023-02-11T19:08:45.861Z,45.71
2023-02-11T19:11:12.936Z,46.04
2023-02-11T19:13:39.762Z,46.88
2023-02-11T19:16:11.464Z,48.24
2023-02-11T19:18:38.362Z,56.59
2023-02-11T19:21:09.389Z,67.44
2023-02-11T19:23:36.123Z,65.57
2023-02-11T19:26:02.748Z,63.13
2023-02-11T19:28:29.448Z,55.16
2023-02-11T19:30:56.264Z,53.10
2023-02-11T19:33:22.968Z,52.84
2023-02-11T19:35:49.802Z,53.27
2023-02-11T19:38:16.596Z,54.18
2023-02-11T19:40:43.224Z,54.98
2023-02-11T19:43:09.940Z,53.30
2023-02-11T19:45:39.611Z,53.34
2023-02-11T19:48:06.372Z,53.78
2023-02-11T19:50:33.074Z,53.80
2023-02-11T19:52:59.726Z,53.12
2023-02-11T19:55:26.417Z,55.10
2023-02-11T19:57:53.047Z,52.40
2023-02-11T20:00:20.091Z,53.78
2023-02-11T20:02:46.887Z,53.30
2023-02-11T20:05:13.590Z,53.32
2023-02-11T20:07:40.319Z,54.29
2023-02-11T20:10:07.732Z,52.47
2023-02-11T20:12:34.370Z,52.83
2023-02-11T20:15:01.171Z,53.68
2023-02-11T20:17:27.817Z,51.94
2023-02-11T20:19:54.509Z,53.36
2023-02-11T20:22:21.142Z,53.04
2023-02-11T20:24:47.819Z,51.67
2023-02-11T20:27:14.457Z,52.32
2023-02-11T20:29:41.080Z,51.17
2023-02-11T20:32:08.034Z,52.30
2023-02-11T20:34:34.945Z,51.01
2023-02-11T20:37:01.629Z,51.51
2023-02-11T20:39:28.333Z,50.26
2023-02-11T20:41:54.976Z,51.86
2023-02-11T20:44:21.795Z,50.28
2023-02-11T20:46:48.493Z,51.05
2023-02-11T20:49:17.125Z,52.38
2023-02-11T20:51:43.966Z,52.46
2023-02-11T20:54:17.936Z,53.49
2023-02-11T20:56:47.741Z,53.20
2023-02-11T20:59:14.809Z,54.21
2023-02-11T21:01:42.900Z,53.40
2023-02-11T21:04:14.413Z,54.30
2023-02-11T21:06:45.669Z,52.06
2023-02-11T21:09:13.932Z,54.25
2023-02-11T21:11:40.822Z,52.62
2023-02-11T21:14:07.499Z,52.97
2023-02-11T21:16:34.199Z,53.13
2023-02-11T21:19:01.264Z,52.56
2023-02-11T21:21:28.000Z,52.96
2023-02-11T21:23:54.742Z,53.39
2023-02-11T21:26:21.589Z,51.35
2023-02-11T21:28:48.380Z,50.71
2023-02-11T21:31:19.976Z,49.92
2023-02-11T21:33:46.755Z,51.03
2023-02-11T21:36:13.354Z,52.16
2023-02-11T21:38:40.033Z,51.64
2023-02-11T21:41:06.760Z,50.99
2023-02-11T21:43:33.468Z,49.10
2023-02-11T21:46:00.139Z,49.13
2023-02-11T21:48:26.799Z,50.13
2023-02-11T21:50:53.501Z,49.01
2023-02-11T21:53:20.117Z,48.84
2023-02-11T21:55:46.790Z,47.37
2023-02-11T21:58:13.447Z,48.83
2023-02-11T22:00:40.133Z,48.40
2023-02-11T22:03:06.824Z,49.16
2023-02-11T22:05:33.483Z,48.91
2023-02-11T22:08:00.108Z,47.11
2023-02-11T22:10:26.731Z,46.39
2023-02-11T22:12:53.644Z,45.88
2023-02-11T22:15:20.279Z,46.46
2023-02-11T22:17:46.947Z,46.53
2023-02-11T22:20:13.576Z,47.53
2023-02-11T22:22:40.245Z,45.91
2023-02-11T22:25:07.291Z,46.68
2023-02-11T22:27:33.935Z,45.36
2023-02-11T22:30:00.543Z,46.05
2023-02-11T22:32:27.198Z,44.99
2023-02-11T22:34:53.826Z,45.03
2023-02-11T22:37:20.590Z,45.13
2023-02-11T22:39:47.373Z,45.43
2023-02-11T22:42:14.022Z,44.84
2023-02-11T22:44:40.686Z,44.36
2023-02-11T22:47:07.379Z,44.36
2023-02-11T22:49:34.066Z,43.71
2023-02-11T22:52:00.737Z,43.91
2023-02-11T22:54:27.387Z,44.68
2023-02-11T22:56:54.002Z,43.78
2023-02-11T22:59:20.783Z,42.61
2023-02-11T23:01:47.694Z,41.54
2023-02-11T23:04:15.205Z,42.16
2023-02-11T23:06:41.931Z,41.38
2023-02-11T23:09:09.414Z,40.43
2023-02-11T23:11:36.038Z,41.46
2023-02-11T23:14:02.767Z,42.06
2023-02-11T23:16:33.148Z,39.04
2023-02-11T23:19:00.730Z,40.58
2023-02-11T23:21:29.107Z,38.23
2023-02-11T23:23:57.579Z,39.04
2023-02-11T23:26:24.336Z,39.95
2023-02-11T23:28:50.991Z,38.20
2023-02-11T23:31:18.841Z,36.91
2023-02-11T23:33:45.616Z,36.90
2023-02-11T23:36:13.564Z,35.90
2023-02-11T23:38:40.229Z,37.46
2023-02-11T23:41:06.857Z,37.08
2023-02-11T23:43:33.459Z,37.95
2023-02-11T23:46:00.168Z,37.35
2023-02-11T23:48:26.993Z,36.37
2023-02-11T23:50:53.631Z,36.14
2023-02-11T23:53:20.272Z,35.90
2023-02-11T23:55:46.920Z,36.94
2023-02-11T23:58:13.993Z,35.57
